Terminal Aerodrome Forecast
Issued by NWS Northern Indiana

Home | Current Version | Previous Version | Text Only | Print | Product List | Glossary On
Versions: 1 2 3 4 5 6 7 8 9 10 11 12 13 14 15 16 17
000
FTUS43 KIWX 260804 AAA
TAFFWA
TAF AMD
KFWA 260804Z 2608/2706 VRB02KT 4SM BR FEW060 SCT250
      TEMPO 2609/2612 2SM BR
     FM261400 06006KT P6SM SCT050 BKN200
     FM270000 VRB03KT P6SM SCT250=

USA.gov is the U.S. government's official web portal to all federal, state and local government web resources and services.